Катастрофа Ил-76 в Махачкале

В результате столкновения в аэропорту Махачкалы двух самолетов пять членов экипажа одного из самолетов погибли, один получил тяжелые ранения, сообщили «Интерфаксу» в пресс-центре внутренних войск.

Там уточнили, что один из самолетов Ил-76 находился на рулении в аэропорту Махачкалы, он перевозил личный состав внутренних войск. Второй самолет Ил-76 садился в аэропорту, на борту также находились солдаты внутренних войск.
Во время посадки самолет порывом ветра снесло с траектории, и он задел крылом находившийся на рулении второй борт. «Газета.Ru»

Видео очевидцев трагедии:

http://life.ru/media/images/0109/fbad6b600c1cbd9164cdac766952bb74.jpg

Погода на момент катастрофы:

URML 151730Z 16002MPS 2000 BR BKN004 M01/M02 Q1024 NOSIG RMK QFE768 G/Z SC07
URML 151700Z 17002MPS 4000 BR BKN004 M01/M02 Q1024 NOSIG RMK QFE768 G/Z SC07
URML 151630Z 15002MPS 4000 BR BKN004 M01/M02 Q1025 NOSIG RMK QFE768 G/Z SC07

URML 151637Z 1518/1603 14006G11MPS 3000 BR SCT007 BKN030 530001
TEMPO 1521/1603 0600 FG BR SCT002 BKN030

Ссылки по теме:
Авиакатастрофа в Лос-Родеос 27 марта 1977
Аэропорт Махачкалы (URML) — снимок из космоса на wikimapia

Пост будет обновляться по мере появления новой информации.

Update (4:39 MSK): Расследованием будет заниматься комиссия главного командования внутренних войск, а это значит что вероятнее всего информация о расследовании будет закрыта.
Update (20:05 MSK): Репортаж «Вестей» из Махачкалы (официальная информация, списки погибших и раненых)

Стали известны бортовые номера двух Ил-76, которые пострадали в инцинденте — это RA-76827 и RA-76825. Оба борта принадлежат МВД, базировались в Нижнем Новгороде (Стригино).

На данный момент рассматриваются две версии произошедшего — снос на посадке и выезд за пределы предварительного старта. Суда по этому кадру из любительской съемки, я больше склоняюсь ко второй версии. Обратите внимание на открытые створки реверса.

Update (17.01 01:58 MSK): Ошибка диспетчера — одна из версий ЧП в аэропорту Махачкалы (видео «Вестей»)


Крушение CRJ-100 а/к Белавиа

Сегодня в аэропорту Зварнотц в Ереване (Армения) сразу после взлёта потерпел крушение самолёт CRJ-100 белорусской авиакомпании Белавиа, бортовой номер EW-101PA. Никто из 18 человек и 3 членов экипажа, присутствовавших на борту, к счастью, не погиб. 7 человек госпитализированы с ранениями различной степени тяжести. На данный момент наиболее вероятной версией выглядит обледенение поверхности крыла (в частности, передней кромки крыла), которое могло возникнуть вследствие некачественной обработки антиобледенительной жидкостью.

Фотографии by swans0ng

belavia-crash.jpg

И обстоятельный видеорепортаж с места катастрофы — http://news.tut.by/103335.html